sensor_id;sensor_type;location;lat;lon;timestamp;temperature;humidity
2623;DHT22;1321;48.690;9.022;2022-07-29T00:01:19;24.80;99.90
2623;DHT22;1321;48.690;9.022;2022-07-29T00:03:47;24.80;99.90
2623;DHT22;1321;48.690;9.022;2022-07-29T00:06:16;24.80;99.90
2623;DHT22;1321;48.690;9.022;2022-07-29T00:08:44;24.80;99.90
2623;DHT22;1321;48.690;9.022;2022-07-29T00:11:12;24.80;99.90
2623;DHT22;1321;48.690;9.022;2022-07-29T00:13:40;24.80;99.90
2623;DHT22;1321;48.690;9.022;2022-07-29T00:16:16;24.90;99.90
2623;DHT22;1321;48.690;9.022;2022-07-29T00:18:44;24.90;99.90
2623;DHT22;1321;48.690;9.022;2022-07-29T00:21:12;24.90;99.90
2623;DHT22;1321;48.690;9.022;2022-07-29T00:23:40;24.80;99.90
2623;DHT22;1321;48.690;9.022;2022-07-29T00:26:09;24.80;99.90
2623;DHT22;1321;48.690;9.022;2022-07-29T00:28:37;24.80;99.90
2623;DHT22;1321;48.690;9.022;2022-07-29T00:31:05;24.80;99.90
2623;DHT22;1321;48.690;9.022;2022-07-29T00:33:36;24.80;99.90
2623;DHT22;1321;48.690;9.022;2022-07-29T00:36:04;24.80;99.90
2623;DHT22;1321;48.690;9.022;2022-07-29T00:38:31;24.80;99.90
2623;DHT22;1321;48.690;9.022;2022-07-29T00:41:00;24.70;99.90
2623;DHT22;1321;48.690;9.022;2022-07-29T00:43:28;24.60;99.90
2623;DHT22;1321;48.690;9.022;2022-07-29T00:45:56;24.50;99.90
2623;DHT22;1321;48.690;9.022;2022-07-29T00:48:24;24.60;99.90
2623;DHT22;1321;48.690;9.022;2022-07-29T00:50:54;24.70;99.90
2623;DHT22;1321;48.690;9.022;2022-07-29T00:53:23;24.60;99.90
2623;DHT22;1321;48.690;9.022;2022-07-29T00:55:53;24.70;99.90
2623;DHT22;1321;48.690;9.022;2022-07-29T00:58:21;24.70;99.90
2623;DHT22;1321;48.690;9.022;2022-07-29T01:00:50;24.70;99.90
2623;DHT22;1321;48.690;9.022;2022-07-29T01:03:18;24.70;99.90
2623;DHT22;1321;48.690;9.022;2022-07-29T01:05:46;24.70;99.90
2623;DHT22;1321;48.690;9.022;2022-07-29T01:08:19;24.60;99.90
2623;DHT22;1321;48.690;9.022;2022-07-29T01:10:48;24.50;99.90
2623;DHT22;1321;48.690;9.022;2022-07-29T01:13:17;24.40;99.90
2623;DHT22;1321;48.690;9.022;2022-07-29T01:15:49;24.30;99.90
2623;DHT22;1321;48.690;9.022;2022-07-29T01:18:22;24.20;99.90
2623;DHT22;1321;48.690;9.022;2022-07-29T01:21:05;24.20;99.90
2623;DHT22;1321;48.690;9.022;2022-07-29T01:23:53;24.10;99.90
2623;DHT22;1321;48.690;9.022;2022-07-29T01:26:38;24.30;99.90
2623;DHT22;1321;48.690;9.022;2022-07-29T01:29:16;24.20;99.90
2623;DHT22;1321;48.690;9.022;2022-07-29T01:31:51;24.20;99.90
2623;DHT22;1321;48.690;9.022;2022-07-29T01:34:34;24.10;99.90
2623;DHT22;1321;48.690;9.022;2022-07-29T01:37:15;24.20;99.90
2623;DHT22;1321;48.690;9.022;2022-07-29T01:39:47;24.10;99.90
2623;DHT22;1321;48.690;9.022;2022-07-29T01:42:23;24.00;99.90
2623;DHT22;1321;48.690;9.022;2022-07-29T01:44:59;24.00;99.90
2623;DHT22;1321;48.690;9.022;2022-07-29T01:47:33;23.90;99.90
2623;DHT22;1321;48.690;9.022;2022-07-29T01:50:06;23.90;99.90
2623;DHT22;1321;48.690;9.022;2022-07-29T01:52:39;23.90;99.90
2623;DHT22;1321;48.690;9.022;2022-07-29T01:55:13;24.00;99.90
2623;DHT22;1321;48.690;9.022;2022-07-29T01:57:45;23.80;99.90
2623;DHT22;1321;48.690;9.022;2022-07-29T02:00:16;23.70;99.90
2623;DHT22;1321;48.690;9.022;2022-07-29T02:02:47;23.80;99.90
2623;DHT22;1321;48.690;9.022;2022-07-29T02:05:18;23.90;99.90
2623;DHT22;1321;48.690;9.022;2022-07-29T02:07:48;23.90;99.90
2623;DHT22;1321;48.690;9.022;2022-07-29T02:10:21;23.90;99.90
2623;DHT22;1321;48.690;9.022;2022-07-29T02:12:54;23.70;99.90
2623;DHT22;1321;48.690;9.022;2022-07-29T02:15:24;23.60;99.90
2623;DHT22;1321;48.690;9.022;2022-07-29T02:17:56;23.60;99.90
2623;DHT22;1321;48.690;9.022;2022-07-29T02:20:26;23.50;99.90
2623;DHT22;1321;48.690;9.022;2022-07-29T02:22:56;23.50;99.90
2623;DHT22;1321;48.690;9.022;2022-07-29T02:25:25;23.40;99.90
2623;DHT22;1321;48.690;9.022;2022-07-29T02:28:05;23.40;99.90
2623;DHT22;1321;48.690;9.022;2022-07-29T02:30:39;23.40;99.90
2623;DHT22;1321;48.690;9.022;2022-07-29T02:33:09;23.40;99.90
2623;DHT22;1321;48.690;9.022;2022-07-29T02:35:38;23.40;99.90
2623;DHT22;1321;48.690;9.022;2022-07-29T02:38:10;23.40;99.90
2623;DHT22;1321;48.690;9.022;2022-07-29T02:41:05;23.30;99.90
2623;DHT22;1321;48.690;9.022;2022-07-29T02:43:35;23.40;99.90
2623;DHT22;1321;48.690;9.022;2022-07-29T02:46:08;23.50;99.90
2623;DHT22;1321;48.690;9.022;2022-07-29T02:48:58;23.50;99.90
2623;DHT22;1321;48.690;9.022;2022-07-29T02:51:33;23.60;99.90
2623;DHT22;1321;48.690;9.022;2022-07-29T02:54:11;23.60;99.90
2623;DHT22;1321;48.690;9.022;2022-07-29T02:56:42;23.60;99.90
2623;DHT22;1321;48.690;9.022;2022-07-29T02:59:14;23.50;99.90
2623;DHT22;1321;48.690;9.022;2022-07-29T03:01:46;23.60;99.90
2623;DHT22;1321;48.690;9.022;2022-07-29T03:04:15;23.50;99.90
2623;DHT22;1321;48.690;9.022;2022-07-29T03:06:45;23.50;99.90
2623;DHT22;1321;48.690;9.022;2022-07-29T03:09:14;23.50;99.90
2623;DHT22;1321;48.690;9.022;2022-07-29T03:11:43;23.40;99.90
2623;DHT22;1321;48.690;9.022;2022-07-29T03:14:17;23.40;99.90
2623;DHT22;1321;48.690;9.022;2022-07-29T03:16:49;23.40;99.90
2623;DHT22;1321;48.690;9.022;2022-07-29T03:19:19;23.40;99.90
2623;DHT22;1321;48.690;9.022;2022-07-29T03:21:48;23.30;99.90
2623;DHT22;1321;48.690;9.022;2022-07-29T03:24:27;23.40;99.90
2623;DHT22;1321;48.690;9.022;2022-07-29T03:26:56;23.30;99.90
2623;DHT22;1321;48.690;9.022;2022-07-29T03:29:25;23.30;99.90
2623;DHT22;1321;48.690;9.022;2022-07-29T03:32:03;23.30;99.90
2623;DHT22;1321;48.690;9.022;2022-07-29T03:34:35;23.50;99.90
2623;DHT22;1321;48.690;9.022;2022-07-29T03:37:03;23.50;99.90
2623;DHT22;1321;48.690;9.022;2022-07-29T03:39:35;23.50;99.90
2623;DHT22;1321;48.690;9.022;2022-07-29T03:42:06;23.50;99.90
2623;DHT22;1321;48.690;9.022;2022-07-29T03:44:35;23.50;99.90
2623;DHT22;1321;48.690;9.022;2022-07-29T03:47:06;23.50;99.90
2623;DHT22;1321;48.690;9.022;2022-07-29T03:49:36;23.50;99.90
2623;DHT22;1321;48.690;9.022;2022-07-29T03:52:05;23.50;99.90
2623;DHT22;1321;48.690;9.022;2022-07-29T03:54:34;23.50;99.90
2623;DHT22;1321;48.690;9.022;2022-07-29T03:57:02;23.50;99.90
2623;DHT22;1321;48.690;9.022;2022-07-29T03:59:32;23.60;99.90
2623;DHT22;1321;48.690;9.022;2022-07-29T04:02:03;23.70;99.90
2623;DHT22;1321;48.690;9.022;2022-07-29T04:04:34;23.70;99.90
2623;DHT22;1321;48.690;9.022;2022-07-29T04:07:03;23.70;99.90
2623;DHT22;1321;48.690;9.022;2022-07-29T04:09:31;23.70;99.90
2623;DHT22;1321;48.690;9.022;2022-07-29T04:12:00;23.70;99.90
2623;DHT22;1321;48.690;9.022;2022-07-29T04:14:30;23.60;99.90
2623;DHT22;1321;48.690;9.022;2022-07-29T04:16:59;23.60;99.90
2623;DHT22;1321;48.690;9.022;2022-07-29T04:19:28;23.60;99.90
2623;DHT22;1321;48.690;9.022;2022-07-29T04:21:58;23.60;99.90
2623;DHT22;1321;48.690;9.022;2022-07-29T04:24:26;23.60;99.90
2623;DHT22;1321;48.690;9.022;2022-07-29T04:26:55;23.70;99.90
2623;DHT22;1321;48.690;9.022;2022-07-29T04:29:23;23.60;99.90
2623;DHT22;1321;48.690;9.022;2022-07-29T04:31:51;23.30;99.90
2623;DHT22;1321;48.690;9.022;2022-07-29T04:34:19;23.20;99.90
2623;DHT22;1321;48.690;9.022;2022-07-29T04:36:47;23.10;99.90
2623;DHT22;1321;48.690;9.022;2022-07-29T04:39:17;22.90;99.90
2623;DHT22;1321;48.690;9.022;2022-07-29T04:41:49;22.80;99.90
2623;DHT22;1321;48.690;9.022;2022-07-29T04:44:20;22.90;99.90
2623;DHT22;1321;48.690;9.022;2022-07-29T04:46:55;22.90;99.90
2623;DHT22;1321;48.690;9.022;2022-07-29T04:49:23;23.00;99.90
2623;DHT22;1321;48.690;9.022;2022-07-29T04:51:52;23.00;99.90
2623;DHT22;1321;48.690;9.022;2022-07-29T04:54:22;23.00;99.90
2623;DHT22;1321;48.690;9.022;2022-07-29T04:56:52;23.10;99.90
2623;DHT22;1321;48.690;9.022;2022-07-29T04:59:20;23.00;99.90
2623;DHT22;1321;48.690;9.022;2022-07-29T05:01:48;23.00;99.90
2623;DHT22;1321;48.690;9.022;2022-07-29T05:04:16;23.20;99.90
2623;DHT22;1321;48.690;9.022;2022-07-29T05:06:46;23.30;99.90
2623;DHT22;1321;48.690;9.022;2022-07-29T05:09:14;23.40;99.90
2623;DHT22;1321;48.690;9.022;2022-07-29T05:11:43;23.50;99.90
2623;DHT22;1321;48.690;9.022;2022-07-29T05:14:12;23.50;99.90
2623;DHT22;1321;48.690;9.022;2022-07-29T05:16:41;23.40;99.90
2623;DHT22;1321;48.690;9.022;2022-07-29T05:19:10;23.30;99.90
2623;DHT22;1321;48.690;9.022;2022-07-29T05:21:40;23.20;99.90
2623;DHT22;1321;48.690;9.022;2022-07-29T05:24:09;23.30;99.90
2623;DHT22;1321;48.690;9.022;2022-07-29T05:26:37;23.40;99.90
2623;DHT22;1321;48.690;9.022;2022-07-29T05:29:07;23.50;99.90
2623;DHT22;1321;48.690;9.022;2022-07-29T05:31:55;23.50;99.90
2623;DHT22;1321;48.690;9.022;2022-07-29T05:34:23;23.50;99.90
2623;DHT22;1321;48.690;9.022;2022-07-29T05:36:51;23.50;99.90
2623;DHT22;1321;48.690;9.022;2022-07-29T05:39:20;23.60;99.90
2623;DHT22;1321;48.690;9.022;2022-07-29T05:42:08;23.60;99.90
2623;DHT22;1321;48.690;9.022;2022-07-29T05:44:38;23.70;99.90
2623;DHT22;1321;48.690;9.022;2022-07-29T05:47:07;23.70;99.90
2623;DHT22;1321;48.690;9.022;2022-07-29T05:49:35;23.60;99.90
2623;DHT22;1321;48.690;9.022;2022-07-29T05:52:04;23.50;99.90
2623;DHT22;1321;48.690;9.022;2022-07-29T05:54:32;23.50;99.90
2623;DHT22;1321;48.690;9.022;2022-07-29T05:57:00;23.60;99.90
2623;DHT22;1321;48.690;9.022;2022-07-29T05:59:28;23.60;99.90
2623;DHT22;1321;48.690;9.022;2022-07-29T06:01:58;23.30;99.90
2623;DHT22;1321;48.690;9.022;2022-07-29T06:04:26;23.30;99.90
2623;DHT22;1321;48.690;9.022;2022-07-29T06:06:54;23.50;99.90
2623;DHT22;1321;48.690;9.022;2022-07-29T06:09:23;23.50;99.90
2623;DHT22;1321;48.690;9.022;2022-07-29T06:11:51;23.60;99.90
2623;DHT22;1321;48.690;9.022;2022-07-29T06:14:19;23.60;99.90
2623;DHT22;1321;48.690;9.022;2022-07-29T06:16:47;23.50;99.90
2623;DHT22;1321;48.690;9.022;2022-07-29T06:19:17;23.60;99.90
2623;DHT22;1321;48.690;9.022;2022-07-29T06:21:46;23.50;99.90
2623;DHT22;1321;48.690;9.022;2022-07-29T06:24:15;23.50;99.90
2623;DHT22;1321;48.690;9.022;2022-07-29T06:26:44;23.30;99.90
2623;DHT22;1321;48.690;9.022;2022-07-29T06:29:12;23.40;99.90
2623;DHT22;1321;48.690;9.022;2022-07-29T06:31:41;23.60;99.90
2623;DHT22;1321;48.690;9.022;2022-07-29T06:34:09;23.60;99.90
2623;DHT22;1321;48.690;9.022;2022-07-29T06:36:38;23.70;99.90
2623;DHT22;1321;48.690;9.022;2022-07-29T06:39:07;23.80;99.90
2623;DHT22;1321;48.690;9.022;2022-07-29T06:41:38;24.00;99.90
2623;DHT22;1321;48.690;9.022;2022-07-29T06:44:06;24.00;99.90
2623;DHT22;1321;48.690;9.022;2022-07-29T06:46:34;24.00;99.90
2623;DHT22;1321;48.690;9.022;2022-07-29T06:49:04;24.10;99.90
2623;DHT22;1321;48.690;9.022;2022-07-29T06:51:32;24.20;99.90
2623;DHT22;1321;48.690;9.022;2022-07-29T06:54:02;24.30;99.90
2623;DHT22;1321;48.690;9.022;2022-07-29T06:56:33;24.40;99.90
2623;DHT22;1321;48.690;9.022;2022-07-29T06:59:06;24.50;99.90
2623;DHT22;1321;48.690;9.022;2022-07-29T07:01:35;24.60;99.90
2623;DHT22;1321;48.690;9.022;2022-07-29T07:04:03;24.80;99.90
2623;DHT22;1321;48.690;9.022;2022-07-29T07:06:32;24.80;99.90
2623;DHT22;1321;48.690;9.022;2022-07-29T07:09:01;25.00;99.90
2623;DHT22;1321;48.690;9.022;2022-07-29T07:11:29;25.00;99.90
2623;DHT22;1321;48.690;9.022;2022-07-29T07:13:57;25.10;99.90
2623;DHT22;1321;48.690;9.022;2022-07-29T07:16:30;25.10;99.90
2623;DHT22;1321;48.690;9.022;2022-07-29T07:18:59;25.10;99.90
2623;DHT22;1321;48.690;9.022;2022-07-29T07:21:27;25.20;99.90
2623;DHT22;1321;48.690;9.022;2022-07-29T07:23:56;25.20;99.90
2623;DHT22;1321;48.690;9.022;2022-07-29T07:26:26;25.30;99.90
2623;DHT22;1321;48.690;9.022;2022-07-29T07:28:54;25.30;99.90
2623;DHT22;1321;48.690;9.022;2022-07-29T07:31:23;25.40;99.90
2623;DHT22;1321;48.690;9.022;2022-07-29T07:33:51;25.40;99.90
2623;DHT22;1321;48.690;9.022;2022-07-29T07:36:20;25.40;99.90
2623;DHT22;1321;48.690;9.022;2022-07-29T07:38:49;25.50;99.90
2623;DHT22;1321;48.690;9.022;2022-07-29T07:41:17;25.50;99.90
2623;DHT22;1321;48.690;9.022;2022-07-29T07:43:46;25.50;99.90
2623;DHT22;1321;48.690;9.022;2022-07-29T07:46:15;25.60;99.90
2623;DHT22;1321;48.690;9.022;2022-07-29T07:48:43;25.70;99.90
2623;DHT22;1321;48.690;9.022;2022-07-29T07:51:11;25.70;99.90
2623;DHT22;1321;48.690;9.022;2022-07-29T07:53:40;25.70;99.90
2623;DHT22;1321;48.690;9.022;2022-07-29T07:56:08;25.70;99.90
2623;DHT22;1321;48.690;9.022;2022-07-29T07:58:38;25.70;99.90
2623;DHT22;1321;48.690;9.022;2022-07-29T08:01:08;25.70;99.90
2623;DHT22;1321;48.690;9.022;2022-07-29T08:03:36;25.70;99.90
2623;DHT22;1321;48.690;9.022;2022-07-29T08:06:05;25.80;99.90
2623;DHT22;1321;48.690;9.022;2022-07-29T08:08:34;25.80;99.90
2623;DHT22;1321;48.690;9.022;2022-07-29T08:11:02;25.80;99.90
2623;DHT22;1321;48.690;9.022;2022-07-29T08:13:36;25.90;99.90
2623;DHT22;1321;48.690;9.022;2022-07-29T08:16:05;25.90;99.90
2623;DHT22;1321;48.690;9.022;2022-07-29T08:18:42;26.00;99.90
2623;DHT22;1321;48.690;9.022;2022-07-29T08:21:10;26.10;99.90
2623;DHT22;1321;48.690;9.022;2022-07-29T08:23:42;26.10;99.90
2623;DHT22;1321;48.690;9.022;2022-07-29T08:26:26;26.00;99.90
2623;DHT22;1321;48.690;9.022;2022-07-29T08:28:54;26.10;99.90
2623;DHT22;1321;48.690;9.022;2022-07-29T08:31:23;26.10;99.90
2623;DHT22;1321;48.690;9.022;2022-07-29T08:33:52;26.10;99.90
2623;DHT22;1321;48.690;9.022;2022-07-29T08:36:23;26.10;99.90
2623;DHT22;1321;48.690;9.022;2022-07-29T08:38:51;26.20;99.90
2623;DHT22;1321;48.690;9.022;2022-07-29T08:41:20;26.20;99.90
2623;DHT22;1321;48.690;9.022;2022-07-29T08:43:49;26.20;99.90
2623;DHT22;1321;48.690;9.022;2022-07-29T08:46:18;26.20;99.90
2623;DHT22;1321;48.690;9.022;2022-07-29T08:48:47;26.30;99.90
2623;DHT22;1321;48.690;9.022;2022-07-29T08:51:18;26.30;99.90
2623;DHT22;1321;48.690;9.022;2022-07-29T08:53:48;26.30;99.90
2623;DHT22;1321;48.690;9.022;2022-07-29T08:56:17;26.30;99.90
2623;DHT22;1321;48.690;9.022;2022-07-29T08:58:46;26.40;99.90
2623;DHT22;1321;48.690;9.022;2022-07-29T09:01:25;26.50;99.90
2623;DHT22;1321;48.690;9.022;2022-07-29T09:04:03;26.50;99.90
2623;DHT22;1321;48.690;9.022;2022-07-29T09:06:37;26.50;99.90
2623;DHT22;1321;48.690;9.022;2022-07-29T09:09:06;26.50;99.90
2623;DHT22;1321;48.690;9.022;2022-07-29T09:11:35;26.60;99.90
2623;DHT22;1321;48.690;9.022;2022-07-29T09:14:03;26.70;99.90
2623;DHT22;1321;48.690;9.022;2022-07-29T09:16:50;26.70;99.90
2623;DHT22;1321;48.690;9.022;2022-07-29T09:19:29;26.80;99.90
2623;DHT22;1321;48.690;9.022;2022-07-29T09:22:00;26.80;99.90
2623;DHT22;1321;48.690;9.022;2022-07-29T09:24:41;26.90;99.90
2623;DHT22;1321;48.690;9.022;2022-07-29T09:27:17;27.00;99.90
2623;DHT22;1321;48.690;9.022;2022-07-29T09:29:46;26.90;99.90
2623;DHT22;1321;48.690;9.022;2022-07-29T09:32:15;27.00;99.90
2623;DHT22;1321;48.690;9.022;2022-07-29T09:34:43;27.00;99.90
2623;DHT22;1321;48.690;9.022;2022-07-29T09:37:25;27.00;99.90
2623;DHT22;1321;48.690;9.022;2022-07-29T09:39:54;27.00;99.90
2623;DHT22;1321;48.690;9.022;2022-07-29T09:42:28;27.10;99.90
2623;DHT22;1321;48.690;9.022;2022-07-29T09:44:59;27.10;99.90
2623;DHT22;1321;48.690;9.022;2022-07-29T09:47:41;27.10;99.90
2623;DHT22;1321;48.690;9.022;2022-07-29T09:50:11;27.20;99.90
2623;DHT22;1321;48.690;9.022;2022-07-29T09:52:47;27.10;99.90
2623;DHT22;1321;48.690;9.022;2022-07-29T09:55:16;27.20;99.90
2623;DHT22;1321;48.690;9.022;2022-07-29T09:57:46;27.20;99.90
2623;DHT22;1321;48.690;9.022;2022-07-29T10:00:16;27.20;99.90
2623;DHT22;1321;48.690;9.022;2022-07-29T10:02:46;27.30;99.90
2623;DHT22;1321;48.690;9.022;2022-07-29T10:05:20;27.30;99.90
2623;DHT22;1321;48.690;9.022;2022-07-29T10:07:53;27.30;99.90
2623;DHT22;1321;48.690;9.022;2022-07-29T10:10:24;27.30;99.90
2623;DHT22;1321;48.690;9.022;2022-07-29T10:12:54;27.30;99.90
2623;DHT22;1321;48.690;9.022;2022-07-29T10:15:24;27.30;99.90
2623;DHT22;1321;48.690;9.022;2022-07-29T10:17:54;27.30;99.90
2623;DHT22;1321;48.690;9.022;2022-07-29T10:20:23;27.40;99.90
2623;DHT22;1321;48.690;9.022;2022-07-29T10:22:53;27.40;99.90
2623;DHT22;1321;48.690;9.022;2022-07-29T10:25:23;27.40;99.90
2623;DHT22;1321;48.690;9.022;2022-07-29T10:27:52;27.30;99.90
2623;DHT22;1321;48.690;9.022;2022-07-29T10:30:23;27.30;99.90
2623;DHT22;1321;48.690;9.022;2022-07-29T10:33:11;27.40;99.90
2623;DHT22;1321;48.690;9.022;2022-07-29T10:36:01;27.40;99.90
2623;DHT22;1321;48.690;9.022;2022-07-29T10:38:48;27.30;99.90
2623;DHT22;1321;48.690;9.022;2022-07-29T10:41:43;27.20;99.90
2623;DHT22;1321;48.690;9.022;2022-07-29T10:44:18;27.10;99.90
2623;DHT22;1321;48.690;9.022;2022-07-29T10:46:50;27.00;99.90
2623;DHT22;1321;48.690;9.022;2022-07-29T10:49:21;26.90;99.90
2623;DHT22;1321;48.690;9.022;2022-07-29T10:51:57;26.80;99.90
2623;DHT22;1321;48.690;9.022;2022-07-29T10:54:39;26.80;99.90
2623;DHT22;1321;48.690;9.022;2022-07-29T10:57:33;26.70;99.90
2623;DHT22;1321;48.690;9.022;2022-07-29T11:00:31;26.60;99.90
2623;DHT22;1321;48.690;9.022;2022-07-29T11:02:59;26.40;99.90
2623;DHT22;1321;48.690;9.022;2022-07-29T11:05:53;26.30;99.90
2623;DHT22;1321;48.690;9.022;2022-07-29T11:08:25;26.20;99.90
2623;DHT22;1321;48.690;9.022;2022-07-29T11:14:04;26.10;99.90
2623;DHT22;1321;48.690;9.022;2022-07-29T11:17:00;26.10;99.90
2623;DHT22;1321;48.690;9.022;2022-07-29T11:19:33;26.00;99.90
2623;DHT22;1321;48.690;9.022;2022-07-29T11:22:33;25.90;99.90
2623;DHT22;1321;48.690;9.022;2022-07-29T11:25:17;25.70;99.90
2623;DHT22;1321;48.690;9.022;2022-07-29T11:28:12;25.60;99.90
2623;DHT22;1321;48.690;9.022;2022-07-29T11:30:52;25.60;99.90
2623;DHT22;1321;48.690;9.022;2022-07-29T11:33:28;25.60;99.90
2623;DHT22;1321;48.690;9.022;2022-07-29T11:36:16;25.60;99.90
2623;DHT22;1321;48.690;9.022;2022-07-29T11:39:25;25.50;99.90
2623;DHT22;1321;48.690;9.022;2022-07-29T11:45:12;25.50;99.90
2623;DHT22;1321;48.690;9.022;2022-07-29T11:48:03;25.50;99.90
2623;DHT22;1321;48.690;9.022;2022-07-29T11:50:53;25.50;99.90
2623;DHT22;1321;48.690;9.022;2022-07-29T11:53:24;25.30;99.90
2623;DHT22;1321;48.690;9.022;2022-07-29T11:55:59;25.00;99.90
2623;DHT22;1321;48.690;9.022;2022-07-29T11:58:29;25.00;99.90
2623;DHT22;1321;48.690;9.022;2022-07-29T12:00:57;25.00;99.90
2623;DHT22;1321;48.690;9.022;2022-07-29T12:03:32;25.00;99.90
2623;DHT22;1321;48.690;9.022;2022-07-29T12:06:04;25.10;99.90
2623;DHT22;1321;48.690;9.022;2022-07-29T12:08:40;25.10;99.90
2623;DHT22;1321;48.690;9.022;2022-07-29T12:11:19;25.20;99.90
2623;DHT22;1321;48.690;9.022;2022-07-29T12:13:50;25.20;99.90
2623;DHT22;1321;48.690;9.022;2022-07-29T12:16:19;25.30;99.90
2623;DHT22;1321;48.690;9.022;2022-07-29T12:18:58;25.30;99.90
2623;DHT22;1321;48.690;9.022;2022-07-29T12:21:28;25.30;99.90
2623;DHT22;1321;48.690;9.022;2022-07-29T12:23:57;25.40;99.90
2623;DHT22;1321;48.690;9.022;2022-07-29T12:26:35;25.40;99.90
2623;DHT22;1321;48.690;9.022;2022-07-29T12:29:06;25.50;99.90
2623;DHT22;1321;48.690;9.022;2022-07-29T12:31:41;25.50;99.90
2623;DHT22;1321;48.690;9.022;2022-07-29T12:34:14;25.50;99.90
2623;DHT22;1321;48.690;9.022;2022-07-29T12:36:43;25.50;99.90
2623;DHT22;1321;48.690;9.022;2022-07-29T12:39:12;25.50;99.90
2623;DHT22;1321;48.690;9.022;2022-07-29T12:41:40;25.50;99.90
2623;DHT22;1321;48.690;9.022;2022-07-29T12:44:08;25.50;99.90
2623;DHT22;1321;48.690;9.022;2022-07-29T12:46:36;25.90;99.90
2623;DHT22;1321;48.690;9.022;2022-07-29T12:49:05;25.50;99.90
2623;DHT22;1321;48.690;9.022;2022-07-29T12:51:36;25.30;99.90
2623;DHT22;1321;48.690;9.022;2022-07-29T12:54:07;25.20;99.90
2623;DHT22;1321;48.690;9.022;2022-07-29T12:56:37;25.20;99.90
2623;DHT22;1321;48.690;9.022;2022-07-29T12:59:18;25.20;99.90
2623;DHT22;1321;48.690;9.022;2022-07-29T13:01:48;25.00;99.90
2623;DHT22;1321;48.690;9.022;2022-07-29T13:04:27;24.90;99.90
2623;DHT22;1321;48.690;9.022;2022-07-29T13:07:00;24.80;99.90
2623;DHT22;1321;48.690;9.022;2022-07-29T13:09:38;24.80;99.90
2623;DHT22;1321;48.690;9.022;2022-07-29T13:12:08;24.80;99.90
2623;DHT22;1321;48.690;9.022;2022-07-29T13:14:38;24.80;99.90
2623;DHT22;1321;48.690;9.022;2022-07-29T13:17:09;24.80;99.90
2623;DHT22;1321;48.690;9.022;2022-07-29T13:19:38;24.80;99.90
2623;DHT22;1321;48.690;9.022;2022-07-29T13:22:10;24.60;99.90
2623;DHT22;1321;48.690;9.022;2022-07-29T13:24:49;24.50;99.90
2623;DHT22;1321;48.690;9.022;2022-07-29T13:27:19;24.40;99.90
2623;DHT22;1321;48.690;9.022;2022-07-29T13:29:48;24.20;99.90
2623;DHT22;1321;48.690;9.022;2022-07-29T13:32:18;24.20;99.90
2623;DHT22;1321;48.690;9.022;2022-07-29T13:34:55;24.30;99.90
2623;DHT22;1321;48.690;9.022;2022-07-29T13:37:26;24.50;99.90
2623;DHT22;1321;48.690;9.022;2022-07-29T13:39:56;24.50;99.90
2623;DHT22;1321;48.690;9.022;2022-07-29T13:42:26;24.50;99.90
2623;DHT22;1321;48.690;9.022;2022-07-29T13:44:54;24.70;99.90
2623;DHT22;1321;48.690;9.022;2022-07-29T13:47:23;24.80;99.90
2623;DHT22;1321;48.690;9.022;2022-07-29T13:49:59;24.80;99.90
2623;DHT22;1321;48.690;9.022;2022-07-29T13:52:29;24.80;99.90
2623;DHT22;1321;48.690;9.022;2022-07-29T13:54:57;24.90;99.90
2623;DHT22;1321;48.690;9.022;2022-07-29T13:57:25;25.00;99.90
2623;DHT22;1321;48.690;9.022;2022-07-29T13:59:54;25.20;99.90
2623;DHT22;1321;48.690;9.022;2022-07-29T14:02:22;25.20;99.90
2623;DHT22;1321;48.690;9.022;2022-07-29T14:04:52;25.30;99.90
2623;DHT22;1321;48.690;9.022;2022-07-29T14:07:20;25.40;99.90
2623;DHT22;1321;48.690;9.022;2022-07-29T14:09:50;25.40;99.90
2623;DHT22;1321;48.690;9.022;2022-07-29T14:12:19;25.50;99.90
2623;DHT22;1321;48.690;9.022;2022-07-29T14:14:47;25.50;99.90
2623;DHT22;1321;48.690;9.022;2022-07-29T14:17:16;25.60;99.90
2623;DHT22;1321;48.690;9.022;2022-07-29T14:19:44;25.70;99.90
2623;DHT22;1321;48.690;9.022;2022-07-29T14:22:12;25.60;99.90
2623;DHT22;1321;48.690;9.022;2022-07-29T14:24:40;25.70;99.90
2623;DHT22;1321;48.690;9.022;2022-07-29T14:27:10;25.70;99.90
2623;DHT22;1321;48.690;9.022;2022-07-29T14:29:38;25.70;99.90
2623;DHT22;1321;48.690;9.022;2022-07-29T14:32:07;25.70;99.90
2623;DHT22;1321;48.690;9.022;2022-07-29T14:34:37;25.70;99.90
2623;DHT22;1321;48.690;9.022;2022-07-29T14:37:06;25.80;99.90
2623;DHT22;1321;48.690;9.022;2022-07-29T14:39:41;25.80;99.90
2623;DHT22;1321;48.690;9.022;2022-07-29T14:42:11;25.70;99.90
2623;DHT22;1321;48.690;9.022;2022-07-29T14:44:40;25.80;99.90
2623;DHT22;1321;48.690;9.022;2022-07-29T14:47:10;25.90;99.90
2623;DHT22;1321;48.690;9.022;2022-07-29T14:49:38;25.90;99.90
2623;DHT22;1321;48.690;9.022;2022-07-29T14:52:06;25.90;99.90
2623;DHT22;1321;48.690;9.022;2022-07-29T14:54:34;26.00;99.90
2623;DHT22;1321;48.690;9.022;2022-07-29T14:57:03;26.00;99.90
2623;DHT22;1321;48.690;9.022;2022-07-29T14:59:32;25.90;99.90
2623;DHT22;1321;48.690;9.022;2022-07-29T15:02:00;26.00;99.90
2623;DHT22;1321;48.690;9.022;2022-07-29T15:04:29;25.90;99.90
2623;DHT22;1321;48.690;9.022;2022-07-29T15:06:58;25.80;99.90
2623;DHT22;1321;48.690;9.022;2022-07-29T15:09:27;25.80;99.90
2623;DHT22;1321;48.690;9.022;2022-07-29T15:11:55;25.70;99.90
2623;DHT22;1321;48.690;9.022;2022-07-29T15:14:23;25.70;1.00
2623;DHT22;1321;48.690;9.022;2022-07-29T15:16:53;25.70;99.90
2623;DHT22;1321;48.690;9.022;2022-07-29T15:19:21;25.70;99.90
2623;DHT22;1321;48.690;9.022;2022-07-29T15:21:49;25.70;99.90
2623;DHT22;1321;48.690;9.022;2022-07-29T15:24:19;25.70;99.90
2623;DHT22;1321;48.690;9.022;2022-07-29T15:26:48;25.60;99.90
2623;DHT22;1321;48.690;9.022;2022-07-29T15:29:16;25.60;99.90
2623;DHT22;1321;48.690;9.022;2022-07-29T15:31:44;25.40;99.90
2623;DHT22;1321;48.690;9.022;2022-07-29T15:34:14;25.30;99.90
2623;DHT22;1321;48.690;9.022;2022-07-29T15:36:42;25.30;99.90
2623;DHT22;1321;48.690;9.022;2022-07-29T15:39:19;25.40;99.90
2623;DHT22;1321;48.690;9.022;2022-07-29T15:41:48;25.60;99.90
2623;DHT22;1321;48.690;9.022;2022-07-29T15:44:16;25.60;99.90
2623;DHT22;1321;48.690;9.022;2022-07-29T15:46:44;25.70;99.90
2623;DHT22;1321;48.690;9.022;2022-07-29T15:49:34;25.70;99.90
2623;DHT22;1321;48.690;9.022;2022-07-29T15:52:16;25.70;99.90
2623;DHT22;1321;48.690;9.022;2022-07-29T15:54:53;25.70;99.90
2623;DHT22;1321;48.690;9.022;2022-07-29T15:57:22;25.70;99.90
2623;DHT22;1321;48.690;9.022;2022-07-29T15:59:50;25.60;99.90
2623;DHT22;1321;48.690;9.022;2022-07-29T16:02:18;25.50;99.90
2623;DHT22;1321;48.690;9.022;2022-07-29T16:04:48;25.50;99.90
2623;DHT22;1321;48.690;9.022;2022-07-29T16:07:16;25.60;99.90
2623;DHT22;1321;48.690;9.022;2022-07-29T16:09:45;25.60;99.90
2623;DHT22;1321;48.690;9.022;2022-07-29T16:12:19;25.60;99.90
2623;DHT22;1321;48.690;9.022;2022-07-29T16:14:47;25.70;99.90
2623;DHT22;1321;48.690;9.022;2022-07-29T16:17:17;25.70;99.90
2623;DHT22;1321;48.690;9.022;2022-07-29T16:19:45;25.70;99.90
2623;DHT22;1321;48.690;9.022;2022-07-29T16:22:15;25.60;99.90
2623;DHT22;1321;48.690;9.022;2022-07-29T16:24:43;25.50;99.90
2623;DHT22;1321;48.690;9.022;2022-07-29T16:27:11;25.50;99.90
2623;DHT22;1321;48.690;9.022;2022-07-29T16:29:40;25.70;99.90
2623;DHT22;1321;48.690;9.022;2022-07-29T16:32:08;25.70;99.90
2623;DHT22;1321;48.690;9.022;2022-07-29T16:34:36;25.80;99.90
2623;DHT22;1321;48.690;9.022;2022-07-29T16:37:04;25.80;99.90